sensor_id;sensor_type;location;lat;lon;timestamp;temperature;humidity
42979;DHT22;28616;44.746;19.678;2024-02-14T07:47:01;7.90;99.90
42979;DHT22;28616;44.746;19.678;2024-02-14T07:49:27;8.00;99.90
42979;DHT22;28616;44.746;19.678;2024-02-14T07:51:53;8.30;99.90
42979;DHT22;28616;44.746;19.678;2024-02-14T07:54:19;8.40;99.90
42979;DHT22;28616;44.746;19.678;2024-02-14T07:56:45;8.70;99.90
42979;DHT22;28616;44.746;19.678;2024-02-14T07:59:11;8.50;99.90
42979;DHT22;28616;44.746;19.678;2024-02-14T08:01:37;8.60;99.90
42979;DHT22;28616;44.746;19.678;2024-02-14T08:04:03;8.90;99.90
42979;DHT22;28616;44.746;19.678;2024-02-14T08:06:30;9.00;99.90
42979;DHT22;28616;44.746;19.678;2024-02-14T08:08:55;9.10;99.90
42979;DHT22;28616;44.746;19.678;2024-02-14T08:11:27;9.00;99.90
42979;DHT22;28616;44.746;19.678;2024-02-14T08:13:53;9.20;99.90
42979;DHT22;28616;44.746;19.678;2024-02-14T08:16:18;8.80;99.90
42979;DHT22;28616;44.746;19.678;2024-02-14T08:18:44;8.90;99.90
42979;DHT22;28616;44.746;19.678;2024-02-14T08:21:10;8.80;99.90
42979;DHT22;28616;44.746;19.678;2024-02-14T08:23:37;8.70;99.90
42979;DHT22;28616;44.746;19.678;2024-02-14T08:26:05;8.70;99.90
42979;DHT22;28616;44.746;19.678;2024-02-14T08:28:36;8.80;99.90
42979;DHT22;28616;44.746;19.678;2024-02-14T08:31:03;8.80;99.90
42979;DHT22;28616;44.746;19.678;2024-02-14T08:33:28;9.10;99.90
42979;DHT22;28616;44.746;19.678;2024-02-14T08:35:54;9.10;99.80
42979;DHT22;28616;44.746;19.678;2024-02-14T08:38:22;9.10;99.80
42979;DHT22;28616;44.746;19.678;2024-02-14T08:40:49;9.20;99.90
42979;DHT22;28616;44.746;19.678;2024-02-14T08:43:14;9.30;99.90
42979;DHT22;28616;44.746;19.678;2024-02-14T08:45:41;9.30;99.00
42979;DHT22;28616;44.746;19.678;2024-02-14T08:48:07;9.10;98.10
42979;DHT22;28616;44.746;19.678;2024-02-14T08:50:32;9.20;98.50
42979;DHT22;28616;44.746;19.678;2024-02-14T08:52:58;9.20;98.60
42979;DHT22;28616;44.746;19.678;2024-02-14T08:55:24;9.10;98.50
42979;DHT22;28616;44.746;19.678;2024-02-14T08:57:50;9.00;98.70
42979;DHT22;28616;44.746;19.678;2024-02-14T09:00:16;9.00;98.60
42979;DHT22;28616;44.746;19.678;2024-02-14T09:02:45;9.10;98.50
42979;DHT22;28616;44.746;19.678;2024-02-14T09:05:13;9.20;98.50
42979;DHT22;28616;44.746;19.678;2024-02-14T09:07:38;9.30;99.20
42979;DHT22;28616;44.746;19.678;2024-02-14T09:10:05;9.40;98.00
42979;DHT22;28616;44.746;19.678;2024-02-14T09:12:31;9.70;97.60
42979;DHT22;28616;44.746;19.678;2024-02-14T09:14:57;9.90;96.70
42979;DHT22;28616;44.746;19.678;2024-02-14T09:17:23;10.00;96.50
42979;DHT22;28616;44.746;19.678;2024-02-14T09:19:49;10.20;95.60
42979;DHT22;28616;44.746;19.678;2024-02-14T09:22:15;10.10;95.70
42979;DHT22;28616;44.746;19.678;2024-02-14T09:24:47;10.30;95.00
42979;DHT22;28616;44.746;19.678;2024-02-14T09:27:14;10.60;94.80
42979;DHT22;28616;44.746;19.678;2024-02-14T09:29:40;10.70;94.60
42979;DHT22;28616;44.746;19.678;2024-02-14T09:32:05;10.90;93.50
42979;DHT22;28616;44.746;19.678;2024-02-14T09:34:31;11.00;93.20
42979;DHT22;28616;44.746;19.678;2024-02-14T09:36:57;11.10;93.00
42979;DHT22;28616;44.746;19.678;2024-02-14T09:39:24;11.50;91.70
42979;DHT22;28616;44.746;19.678;2024-02-14T09:41:59;11.40;91.70
42979;DHT22;28616;44.746;19.678;2024-02-14T09:44:28;11.70;90.60
42979;DHT22;28616;44.746;19.678;2024-02-14T09:46:57;11.50;90.50
42979;DHT22;28616;44.746;19.678;2024-02-14T09:49:23;11.70;90.00
42979;DHT22;28616;44.746;19.678;2024-02-14T09:51:51;11.80;89.60
42979;DHT22;28616;44.746;19.678;2024-02-14T09:54:17;12.10;88.90
42979;DHT22;28616;44.746;19.678;2024-02-14T09:56:53;12.10;87.40
42979;DHT22;28616;44.746;19.678;2024-02-14T09:59:22;12.60;86.80
42979;DHT22;28616;44.746;19.678;2024-02-14T10:01:49;12.80;85.00
42979;DHT22;28616;44.746;19.678;2024-02-14T10:04:17;13.00;83.30
42979;DHT22;28616;44.746;19.678;2024-02-14T10:06:45;13.80;83.10
42979;DHT22;28616;44.746;19.678;2024-02-14T12:09:59;13.10;62.60
42979;DHT22;28616;44.746;19.678;2024-02-14T12:12:24;13.50;62.70
42979;DHT22;28616;44.746;19.678;2024-02-14T12:14:53;13.60;62.30
42979;DHT22;28616;44.746;19.678;2024-02-14T12:17:19;13.90;62.80
42979;DHT22;28616;44.746;19.678;2024-02-14T12:19:45;14.30;62.60
42979;DHT22;28616;44.746;19.678;2024-02-14T12:22:15;14.60;61.50
42979;DHT22;28616;44.746;19.678;2024-02-14T12:24:46;14.50;61.40
42979;DHT22;28616;44.746;19.678;2024-02-14T12:27:18;14.50;59.50
42979;DHT22;28616;44.746;19.678;2024-02-14T12:29:47;14.20;61.10
42979;DHT22;28616;44.746;19.678;2024-02-14T12:32:16;14.20;61.60
42979;DHT22;28616;44.746;19.678;2024-02-14T12:34:44;13.80;61.10
42979;DHT22;28616;44.746;19.678;2024-02-14T12:37:10;14.10;60.80
42979;DHT22;28616;44.746;19.678;2024-02-14T12:39:37;14.30;60.70
42979;DHT22;28616;44.746;19.678;2024-02-14T12:42:03;14.50;60.90
42979;DHT22;28616;44.746;19.678;2024-02-14T12:44:30;13.70;59.90
42979;DHT22;28616;44.746;19.678;2024-02-14T12:46:57;13.20;62.20
42979;DHT22;28616;44.746;19.678;2024-02-14T12:49:23;12.80;62.30
42979;DHT22;28616;44.746;19.678;2024-02-14T12:51:51;12.20;63.40
42979;DHT22;28616;44.746;19.678;2024-02-14T12:54:17;12.00;65.70
42979;DHT22;28616;44.746;19.678;2024-02-14T12:56:43;12.10;66.70
42979;DHT22;28616;44.746;19.678;2024-02-14T12:59:16;12.00;65.30
42979;DHT22;28616;44.746;19.678;2024-02-14T13:01:43;11.70;65.60
42979;DHT22;28616;44.746;19.678;2024-02-14T13:04:09;11.90;65.30
42979;DHT22;28616;44.746;19.678;2024-02-14T13:06:35;11.60;65.80
42979;DHT22;28616;44.746;19.678;2024-02-14T13:09:03;11.60;67.50
42979;DHT22;28616;44.746;19.678;2024-02-14T13:11:31;11.60;67.20
42979;DHT22;28616;44.746;19.678;2024-02-14T13:13:58;12.00;67.40
42979;DHT22;28616;44.746;19.678;2024-02-14T13:16:24;12.40;66.40
42979;DHT22;28616;44.746;19.678;2024-02-14T13:18:49;12.40;65.40
42979;DHT22;28616;44.746;19.678;2024-02-14T13:21:15;12.10;64.20
42979;DHT22;28616;44.746;19.678;2024-02-14T13:23:42;12.30;65.20
42979;DHT22;28616;44.746;19.678;2024-02-14T13:26:08;12.50;64.80
42979;DHT22;28616;44.746;19.678;2024-02-14T13:28:34;12.50;64.40
42979;DHT22;28616;44.746;19.678;2024-02-14T13:31:00;12.50;61.90
42979;DHT22;28616;44.746;19.678;2024-02-14T13:33:26;12.60;62.30
42979;DHT22;28616;44.746;19.678;2024-02-14T13:35:52;12.40;62.60
42979;DHT22;28616;44.746;19.678;2024-02-14T13:38:18;12.40;62.40
42979;DHT22;28616;44.746;19.678;2024-02-14T13:40:44;12.30;61.40
42979;DHT22;28616;44.746;19.678;2024-02-14T13:43:10;12.20;62.00
42979;DHT22;28616;44.746;19.678;2024-02-14T13:45:41;12.10;62.90
42979;DHT22;28616;44.746;19.678;2024-02-14T13:48:10;12.10;63.60
42979;DHT22;28616;44.746;19.678;2024-02-14T13:50:36;12.10;63.70
42979;DHT22;28616;44.746;19.678;2024-02-14T13:53:04;11.90;61.80
42979;DHT22;28616;44.746;19.678;2024-02-14T13:55:30;11.80;62.30
42979;DHT22;28616;44.746;19.678;2024-02-14T13:57:55;11.80;62.40
42979;DHT22;28616;44.746;19.678;2024-02-14T14:00:21;11.90;62.60
42979;DHT22;28616;44.746;19.678;2024-02-14T14:02:47;11.80;62.20
42979;DHT22;28616;44.746;19.678;2024-02-14T14:05:13;11.70;63.20
42979;DHT22;28616;44.746;19.678;2024-02-14T14:07:39;11.70;63.50
42979;DHT22;28616;44.746;19.678;2024-02-14T14:10:06;11.60;61.60
42979;DHT22;28616;44.746;19.678;2024-02-14T14:12:32;11.60;63.00
42979;DHT22;28616;44.746;19.678;2024-02-14T14:14:58;11.60;62.30
42979;DHT22;28616;44.746;19.678;2024-02-14T14:17:24;11.60;62.70
42979;DHT22;28616;44.746;19.678;2024-02-14T14:19:51;11.50;63.00
42979;DHT22;28616;44.746;19.678;2024-02-14T14:22:17;11.50;63.40
42979;DHT22;28616;44.746;19.678;2024-02-14T14:24:43;11.50;63.70
42979;DHT22;28616;44.746;19.678;2024-02-14T14:27:09;11.40;63.90
42979;DHT22;28616;44.746;19.678;2024-02-14T14:29:42;11.30;64.70
42979;DHT22;28616;44.746;19.678;2024-02-14T14:32:11;11.30;64.80
42979;DHT22;28616;44.746;19.678;2024-02-14T14:34:37;11.20;64.30
42979;DHT22;28616;44.746;19.678;2024-02-14T14:37:03;11.20;65.30
42979;DHT22;28616;44.746;19.678;2024-02-14T14:39:28;11.20;66.20
42979;DHT22;28616;44.746;19.678;2024-02-14T14:41:54;11.30;66.80
42979;DHT22;28616;44.746;19.678;2024-02-14T14:44:24;11.20;65.70
42979;DHT22;28616;44.746;19.678;2024-02-14T14:46:50;11.20;65.40
42979;DHT22;28616;44.746;19.678;2024-02-14T14:49:16;11.10;64.70
42979;DHT22;28616;44.746;19.678;2024-02-14T14:51:42;11.10;64.60
42979;DHT22;28616;44.746;19.678;2024-02-14T14:54:08;11.10;64.60
42979;DHT22;28616;44.746;19.678;2024-02-14T14:56:34;11.00;64.00
42979;DHT22;28616;44.746;19.678;2024-02-14T14:59:00;11.00;64.20
42979;DHT22;28616;44.746;19.678;2024-02-14T15:01:32;10.90;63.70
42979;DHT22;28616;44.746;19.678;2024-02-14T15:03:59;10.90;64.80
42979;DHT22;28616;44.746;19.678;2024-02-14T15:06:26;10.80;64.40
42979;DHT22;28616;44.746;19.678;2024-02-14T15:08:52;10.80;64.50
42979;DHT22;28616;44.746;19.678;2024-02-14T15:11:18;10.80;64.90
42979;DHT22;28616;44.746;19.678;2024-02-14T15:13:46;10.70;65.00
42979;DHT22;28616;44.746;19.678;2024-02-14T15:16:13;10.60;65.40
42979;DHT22;28616;44.746;19.678;2024-02-14T15:18:39;10.60;65.60
42979;DHT22;28616;44.746;19.678;2024-02-14T15:21:06;10.50;65.90
42979;DHT22;28616;44.746;19.678;2024-02-14T15:23:32;10.50;66.40
42979;DHT22;28616;44.746;19.678;2024-02-14T15:25:58;10.40;66.90
42979;DHT22;28616;44.746;19.678;2024-02-14T15:28:32;10.40;67.40
42979;DHT22;28616;44.746;19.678;2024-02-14T15:31:08;10.40;67.30
42979;DHT22;28616;44.746;19.678;2024-02-14T15:33:53;10.30;67.10
42979;DHT22;28616;44.746;19.678;2024-02-14T15:36:21;10.20;67.10
42979;DHT22;28616;44.746;19.678;2024-02-14T15:38:47;10.20;67.60
42979;DHT22;28616;44.746;19.678;2024-02-14T15:41:13;10.10;68.10
42979;DHT22;28616;44.746;19.678;2024-02-14T15:43:40;10.10;67.70
42979;DHT22;28616;44.746;19.678;2024-02-14T15:46:10;10.00;66.80
42979;DHT22;28616;44.746;19.678;2024-02-14T15:48:36;10.00;66.90
42979;DHT22;28616;44.746;19.678;2024-02-14T15:51:02;9.90;66.00
42979;DHT22;28616;44.746;19.678;2024-02-14T15:53:28;9.90;66.40
42979;DHT22;28616;44.746;19.678;2024-02-14T15:55:55;9.80;66.40
42979;DHT22;28616;44.746;19.678;2024-02-14T15:58:21;9.80;66.80
42979;DHT22;28616;44.746;19.678;2024-02-14T16:00:47;9.70;67.20
42979;DHT22;28616;44.746;19.678;2024-02-14T16:03:13;9.60;67.40
42979;DHT22;28616;44.746;19.678;2024-02-14T16:05:39;9.60;67.70
42979;DHT22;28616;44.746;19.678;2024-02-14T16:08:05;9.50;67.70
42979;DHT22;28616;44.746;19.678;2024-02-14T16:10:31;9.50;67.50
42979;DHT22;28616;44.746;19.678;2024-02-14T16:12:57;9.40;68.30
42979;DHT22;28616;44.746;19.678;2024-02-14T16:15:23;9.40;68.70
42979;DHT22;28616;44.746;19.678;2024-02-14T16:17:50;9.30;68.70
42979;DHT22;28616;44.746;19.678;2024-02-14T16:20:16;9.30;68.80
42979;DHT22;28616;44.746;19.678;2024-02-14T16:22:45;9.20;69.00
42979;DHT22;28616;44.746;19.678;2024-02-14T16:25:12;9.10;69.70
42979;DHT22;28616;44.746;19.678;2024-02-14T16:27:38;9.00;70.00
42979;DHT22;28616;44.746;19.678;2024-02-14T16:30:05;8.90;70.00
42979;DHT22;28616;44.746;19.678;2024-02-14T16:32:35;8.90;70.30
42979;DHT22;28616;44.746;19.678;2024-02-14T16:35:01;8.80;70.70
42979;DHT22;28616;44.746;19.678;2024-02-14T16:37:28;8.80;70.70
42979;DHT22;28616;44.746;19.678;2024-02-14T16:39:54;8.80;71.30
42979;DHT22;28616;44.746;19.678;2024-02-14T16:42:20;8.70;71.50
42979;DHT22;28616;44.746;19.678;2024-02-14T16:44:46;8.60;72.00
42979;DHT22;28616;44.746;19.678;2024-02-14T16:47:12;8.60;72.10
42979;DHT22;28616;44.746;19.678;2024-02-14T16:49:38;8.50;72.20
42979;DHT22;28616;44.746;19.678;2024-02-14T16:52:05;8.50;72.10
42979;DHT22;28616;44.746;19.678;2024-02-14T16:54:31;8.40;72.50
42979;DHT22;28616;44.746;19.678;2024-02-14T16:56:58;8.40;72.90
42979;DHT22;28616;44.746;19.678;2024-02-14T16:59:34;8.30;73.10
42979;DHT22;28616;44.746;19.678;2024-02-14T17:02:00;8.30;73.30
42979;DHT22;28616;44.746;19.678;2024-02-14T17:04:26;8.20;73.30
42979;DHT22;28616;44.746;19.678;2024-02-14T17:06:55;8.20;74.10
42979;DHT22;28616;44.746;19.678;2024-02-14T17:09:21;8.10;73.90
42979;DHT22;28616;44.746;19.678;2024-02-14T17:11:47;8.10;74.40
42979;DHT22;28616;44.746;19.678;2024-02-14T17:14:14;8.00;74.40
42979;DHT22;28616;44.746;19.678;2024-02-14T17:16:40;8.00;74.70
42979;DHT22;28616;44.746;19.678;2024-02-14T17:19:08;7.90;74.90
42979;DHT22;28616;44.746;19.678;2024-02-14T17:21:34;7.90;74.70
42979;DHT22;28616;44.746;19.678;2024-02-14T17:24:02;7.90;75.00
42979;DHT22;28616;44.746;19.678;2024-02-14T17:26:28;7.80;74.70
42979;DHT22;28616;44.746;19.678;2024-02-14T17:28:53;7.80;75.20
42979;DHT22;28616;44.746;19.678;2024-02-14T17:31:19;7.70;75.40
42979;DHT22;28616;44.746;19.678;2024-02-14T17:33:45;7.70;75.30
42979;DHT22;28616;44.746;19.678;2024-02-14T17:36:12;7.60;75.10
42979;DHT22;28616;44.746;19.678;2024-02-14T17:38:38;7.60;75.30
42979;DHT22;28616;44.746;19.678;2024-02-14T17:41:05;7.60;75.20
42979;DHT22;28616;44.746;19.678;2024-02-14T17:43:32;7.60;75.10
42979;DHT22;28616;44.746;19.678;2024-02-14T17:45:58;7.50;75.40
42979;DHT22;28616;44.746;19.678;2024-02-14T17:48:24;7.50;75.20
42979;DHT22;28616;44.746;19.678;2024-02-14T17:50:51;7.50;75.80
42979;DHT22;28616;44.746;19.678;2024-02-14T17:53:17;7.50;75.70
42979;DHT22;28616;44.746;19.678;2024-02-14T17:55:43;7.40;76.10
42979;DHT22;28616;44.746;19.678;2024-02-14T17:58:08;7.40;76.40
42979;DHT22;28616;44.746;19.678;2024-02-14T18:00:34;7.40;76.90
42979;DHT22;28616;44.746;19.678;2024-02-14T18:03:01;7.30;77.60
42979;DHT22;28616;44.746;19.678;2024-02-14T18:05:27;7.20;77.40
42979;DHT22;28616;44.746;19.678;2024-02-14T18:07:53;7.20;77.90
42979;DHT22;28616;44.746;19.678;2024-02-14T18:10:19;7.10;78.00
42979;DHT22;28616;44.746;19.678;2024-02-14T18:12:45;7.00;78.20
42979;DHT22;28616;44.746;19.678;2024-02-14T18:15:11;6.90;78.30
42979;DHT22;28616;44.746;19.678;2024-02-14T18:17:37;6.90;78.50
42979;DHT22;28616;44.746;19.678;2024-02-14T18:20:03;6.80;79.10
42979;DHT22;28616;44.746;19.678;2024-02-14T18:22:29;6.70;80.00
42979;DHT22;28616;44.746;19.678;2024-02-14T18:24:56;6.70;79.90
42979;DHT22;28616;44.746;19.678;2024-02-14T18:27:21;6.60;80.50
42979;DHT22;28616;44.746;19.678;2024-02-14T18:29:50;6.50;81.10
42979;DHT22;28616;44.746;19.678;2024-02-14T18:32:17;6.50;80.90
42979;DHT22;28616;44.746;19.678;2024-02-14T18:34:44;6.40;81.40
42979;DHT22;28616;44.746;19.678;2024-02-14T18:37:10;6.30;81.60
42979;DHT22;28616;44.746;19.678;2024-02-14T18:39:36;6.30;82.10
42979;DHT22;28616;44.746;19.678;2024-02-14T18:42:06;6.20;82.60
42979;DHT22;28616;44.746;19.678;2024-02-14T18:44:32;6.10;82.60
42979;DHT22;28616;44.746;19.678;2024-02-14T18:46:58;6.00;83.10
42979;DHT22;28616;44.746;19.678;2024-02-14T18:49:24;6.00;83.60
42979;DHT22;28616;44.746;19.678;2024-02-14T18:51:50;5.90;84.10
42979;DHT22;28616;44.746;19.678;2024-02-14T18:54:15;5.90;83.90
42979;DHT22;28616;44.746;19.678;2024-02-14T18:56:41;5.90;83.80
42979;DHT22;28616;44.746;19.678;2024-02-14T18:59:07;5.80;84.20
42979;DHT22;28616;44.746;19.678;2024-02-14T19:01:34;5.80;84.30
42979;DHT22;28616;44.746;19.678;2024-02-14T19:04:00;5.80;84.60
42979;DHT22;28616;44.746;19.678;2024-02-14T19:06:29;5.80;84.40
42979;DHT22;28616;44.746;19.678;2024-02-14T19:09:00;5.80;85.10
42979;DHT22;28616;44.746;19.678;2024-02-14T19:11:28;5.70;84.70
42979;DHT22;28616;44.746;19.678;2024-02-14T19:13:55;5.70;85.30
42979;DHT22;28616;44.746;19.678;2024-02-14T19:16:21;5.60;85.40
42979;DHT22;28616;44.746;19.678;2024-02-14T19:18:47;5.50;86.00
42979;DHT22;28616;44.746;19.678;2024-02-14T19:21:13;5.50;86.00
42979;DHT22;28616;44.746;19.678;2024-02-14T19:23:40;5.50;86.10
42979;DHT22;28616;44.746;19.678;2024-02-14T19:26:06;5.40;86.80
42979;DHT22;28616;44.746;19.678;2024-02-14T19:28:32;5.30;86.90
42979;DHT22;28616;44.746;19.678;2024-02-14T19:30:58;5.30;87.30
42979;DHT22;28616;44.746;19.678;2024-02-14T19:33:24;5.20;87.60
42979;DHT22;28616;44.746;19.678;2024-02-14T19:35:51;5.20;88.00
42979;DHT22;28616;44.746;19.678;2024-02-14T19:38:17;5.10;88.60
42979;DHT22;28616;44.746;19.678;2024-02-14T19:40:43;5.10;89.00
42979;DHT22;28616;44.746;19.678;2024-02-14T19:43:09;5.10;89.20
42979;DHT22;28616;44.746;19.678;2024-02-14T19:45:35;5.10;89.30
42979;DHT22;28616;44.746;19.678;2024-02-14T19:48:03;5.10;89.20
42979;DHT22;28616;44.746;19.678;2024-02-14T19:50:29;5.10;89.40
42979;DHT22;28616;44.746;19.678;2024-02-14T19:52:55;5.10;89.80
42979;DHT22;28616;44.746;19.678;2024-02-14T19:55:21;5.00;89.90
42979;DHT22;28616;44.746;19.678;2024-02-14T19:57:48;5.10;90.00
42979;DHT22;28616;44.746;19.678;2024-02-14T20:00:14;5.00;90.00
42979;DHT22;28616;44.746;19.678;2024-02-14T20:02:43;5.00;90.20
42979;DHT22;28616;44.746;19.678;2024-02-14T20:05:09;5.00;90.30
42979;DHT22;28616;44.746;19.678;2024-02-14T20:07:35;5.00;90.60
42979;DHT22;28616;44.746;19.678;2024-02-14T20:10:01;5.00;90.90
42979;DHT22;28616;44.746;19.678;2024-02-14T20:12:29;5.00;91.00
42979;DHT22;28616;44.746;19.678;2024-02-14T20:14:58;5.00;91.20
42979;DHT22;28616;44.746;19.678;2024-02-14T20:17:24;4.90;91.40
42979;DHT22;28616;44.746;19.678;2024-02-14T20:19:50;5.00;91.50
42979;DHT22;28616;44.746;19.678;2024-02-14T20:22:17;5.00;91.60
42979;DHT22;28616;44.746;19.678;2024-02-14T20:24:45;5.10;91.50
42979;DHT22;28616;44.746;19.678;2024-02-14T20:27:11;5.10;91.50
42979;DHT22;28616;44.746;19.678;2024-02-14T20:29:36;5.10;91.50
42979;DHT22;28616;44.746;19.678;2024-02-14T20:32:02;5.20;91.70
42979;DHT22;28616;44.746;19.678;2024-02-14T20:34:28;5.20;91.80
42979;DHT22;28616;44.746;19.678;2024-02-14T20:36:54;5.20;91.80
42979;DHT22;28616;44.746;19.678;2024-02-14T20:39:20;5.30;91.70
42979;DHT22;28616;44.746;19.678;2024-02-14T20:41:46;5.30;91.80
42979;DHT22;28616;44.746;19.678;2024-02-14T20:44:12;5.30;91.80
42979;DHT22;28616;44.746;19.678;2024-02-14T20:46:38;5.40;92.00
42979;DHT22;28616;44.746;19.678;2024-02-14T20:49:04;5.40;92.10
42979;DHT22;28616;44.746;19.678;2024-02-14T20:51:35;5.40;92.20
42979;DHT22;28616;44.746;19.678;2024-02-14T20:54:02;5.50;92.30
42979;DHT22;28616;44.746;19.678;2024-02-14T20:56:30;5.40;92.20
42979;DHT22;28616;44.746;19.678;2024-02-14T20:58:56;5.50;92.40
42979;DHT22;28616;44.746;19.678;2024-02-14T21:01:21;5.40;92.50
42979;DHT22;28616;44.746;19.678;2024-02-14T21:03:47;5.40;92.60
42979;DHT22;28616;44.746;19.678;2024-02-14T21:06:14;5.40;92.60
42979;DHT22;28616;44.746;19.678;2024-02-14T21:08:40;5.50;92.60
42979;DHT22;28616;44.746;19.678;2024-02-14T21:11:06;5.40;92.80
42979;DHT22;28616;44.746;19.678;2024-02-14T21:13:31;5.50;92.80
42979;DHT22;28616;44.746;19.678;2024-02-14T21:15:57;5.50;92.90
42979;DHT22;28616;44.746;19.678;2024-02-14T21:18:23;5.50;93.00
42979;DHT22;28616;44.746;19.678;2024-02-14T21:20:49;5.50;93.00
42979;DHT22;28616;44.746;19.678;2024-02-14T21:23:15;5.40;93.30
42979;DHT22;28616;44.746;19.678;2024-02-14T21:25:41;5.40;93.40
42979;DHT22;28616;44.746;19.678;2024-02-14T21:28:07;5.40;93.80
42979;DHT22;28616;44.746;19.678;2024-02-14T21:30:32;5.30;93.90
42979;DHT22;28616;44.746;19.678;2024-02-14T21:32:58;5.20;94.20
42979;DHT22;28616;44.746;19.678;2024-02-14T21:35:26;5.20;94.30
42979;DHT22;28616;44.746;19.678;2024-02-14T21:37:52;5.20;94.50
42979;DHT22;28616;44.746;19.678;2024-02-14T21:40:17;5.10;94.50
42979;DHT22;28616;44.746;19.678;2024-02-14T21:42:43;5.10;94.70
42979;DHT22;28616;44.746;19.678;2024-02-14T21:45:09;5.10;94.90
42979;DHT22;28616;44.746;19.678;2024-02-14T21:47:37;5.10;95.10
42979;DHT22;28616;44.746;19.678;2024-02-14T21:50:03;5.20;95.00
42979;DHT22;28616;44.746;19.678;2024-02-14T21:52:29;5.20;95.00
42979;DHT22;28616;44.746;19.678;2024-02-14T21:54:56;5.20;95.10
42979;DHT22;28616;44.746;19.678;2024-02-14T21:57:22;5.20;95.00
42979;DHT22;28616;44.746;19.678;2024-02-14T21:59:52;5.20;95.10
42979;DHT22;28616;44.746;19.678;2024-02-14T22:02:18;5.20;95.20
42979;DHT22;28616;44.746;19.678;2024-02-14T22:04:44;5.10;95.50
42979;DHT22;28616;44.746;19.678;2024-02-14T22:07:11;5.10;95.40
42979;DHT22;28616;44.746;19.678;2024-02-14T22:09:37;5.10;95.80
42979;DHT22;28616;44.746;19.678;2024-02-14T22:12:04;5.10;96.20
42979;DHT22;28616;44.746;19.678;2024-02-14T22:14:34;5.10;96.40
42979;DHT22;28616;44.746;19.678;2024-02-14T22:17:03;5.00;97.10
42979;DHT22;28616;44.746;19.678;2024-02-14T22:19:31;5.00;97.70
42979;DHT22;28616;44.746;19.678;2024-02-14T22:21:59;5.00;97.90
42979;DHT22;28616;44.746;19.678;2024-02-14T22:24:25;5.00;98.20
42979;DHT22;28616;44.746;19.678;2024-02-14T22:26:53;5.00;98.30
42979;DHT22;28616;44.746;19.678;2024-02-14T22:29:20;5.00;98.30
42979;DHT22;28616;44.746;19.678;2024-02-14T22:31:45;5.10;97.90
42979;DHT22;28616;44.746;19.678;2024-02-14T22:34:11;5.10;97.90
42979;DHT22;28616;44.746;19.678;2024-02-14T22:36:37;5.20;98.00
42979;DHT22;28616;44.746;19.678;2024-02-14T22:39:03;5.20;98.30
42979;DHT22;28616;44.746;19.678;2024-02-14T22:41:31;5.20;98.30
42979;DHT22;28616;44.746;19.678;2024-02-14T22:43:58;5.20;98.40
42979;DHT22;28616;44.746;19.678;2024-02-14T22:46:24;5.20;98.20
42979;DHT22;28616;44.746;19.678;2024-02-14T22:48:49;5.30;98.50
42979;DHT22;28616;44.746;19.678;2024-02-14T22:51:16;5.30;98.10
42979;DHT22;28616;44.746;19.678;2024-02-14T22:53:42;5.30;98.40
42979;DHT22;28616;44.746;19.678;2024-02-14T22:56:09;5.30;98.90
42979;DHT22;28616;44.746;19.678;2024-02-14T22:58:38;5.30;99.40
42979;DHT22;28616;44.746;19.678;2024-02-14T23:01:04;5.30;99.90
42979;DHT22;28616;44.746;19.678;2024-02-14T23:03:30;5.30;99.90
42979;DHT22;28616;44.746;19.678;2024-02-14T23:05:55;5.20;99.90
42979;DHT22;28616;44.746;19.678;2024-02-14T23:08:21;5.20;99.90
42979;DHT22;28616;44.746;19.678;2024-02-14T23:10:47;5.20;99.90
42979;DHT22;28616;44.746;19.678;2024-02-14T23:13:13;5.20;99.90
42979;DHT22;28616;44.746;19.678;2024-02-14T23:15:38;5.20;99.90
42979;DHT22;28616;44.746;19.678;2024-02-14T23:18:04;5.30;99.90
42979;DHT22;28616;44.746;19.678;2024-02-14T23:20:31;5.30;99.90
42979;DHT22;28616;44.746;19.678;2024-02-14T23:22:57;5.30;99.90
42979;DHT22;28616;44.746;19.678;2024-02-14T23:25:23;5.30;99.90
42979;DHT22;28616;44.746;19.678;2024-02-14T23:27:48;5.30;99.90
42979;DHT22;28616;44.746;19.678;2024-02-14T23:30:16;5.30;99.90
42979;DHT22;28616;44.746;19.678;2024-02-14T23:32:43;5.30;99.90
42979;DHT22;28616;44.746;19.678;2024-02-14T23:35:09;5.30;99.90
42979;DHT22;28616;44.746;19.678;2024-02-14T23:37:39;5.30;99.90
42979;DHT22;28616;44.746;19.678;2024-02-14T23:40:11;5.30;99.90
42979;DHT22;28616;44.746;19.678;2024-02-14T23:42:43;5.30;99.90
42979;DHT22;28616;44.746;19.678;2024-02-14T23:45:10;5.30;99.90
42979;DHT22;28616;44.746;19.678;2024-02-14T23:47:36;5.40;99.90
42979;DHT22;28616;44.746;19.678;2024-02-14T23:50:03;5.40;99.90
42979;DHT22;28616;44.746;19.678;2024-02-14T23:52:30;5.30;99.90
42979;DHT22;28616;44.746;19.678;2024-02-14T23:54:57;5.30;99.90
42979;DHT22;28616;44.746;19.678;2024-02-14T23:57:23;5.30;99.90
42979;DHT22;28616;44.746;19.678;2024-02-14T23:59:49;5.20;99.90
